createdAt,value
2023-05-14T00:01:12.071Z,9.70
2023-05-14T00:02:45.067Z,9.70
2023-05-14T00:04:19.518Z,9.70
2023-05-14T00:05:52.220Z,9.60
2023-05-14T00:07:30.636Z,9.60
2023-05-14T00:09:02.900Z,9.60
2023-05-14T00:10:36.117Z,9.60
2023-05-14T00:12:08.640Z,9.50
2023-05-14T00:13:41.649Z,9.50
2023-05-14T00:15:14.796Z,9.50
2023-05-14T00:16:49.109Z,9.50
2023-05-14T00:18:22.174Z,9.50
2023-05-14T00:19:55.166Z,9.50
2023-05-14T00:21:28.264Z,9.50
2023-05-14T00:23:00.675Z,9.40
2023-05-14T00:24:33.616Z,9.40
2023-05-14T00:26:06.673Z,9.40
2023-05-14T00:27:38.727Z,9.40
2023-05-14T00:29:11.676Z,9.40
2023-05-14T00:30:45.158Z,9.30
2023-05-14T00:32:19.459Z,9.30
2023-05-14T00:33:52.357Z,9.30
2023-05-14T00:35:24.491Z,9.30
2023-05-14T00:36:57.420Z,9.20
2023-05-14T00:38:30.369Z,9.20
2023-05-14T00:40:03.672Z,9.20
2023-05-14T00:41:36.456Z,9.20
2023-05-14T00:43:09.412Z,9.20
2023-05-14T00:44:42.423Z,9.20
2023-05-14T00:46:14.985Z,9.20
2023-05-14T00:47:49.692Z,9.10
2023-05-14T00:49:22.787Z,9.20
2023-05-14T00:50:55.925Z,9.10
2023-05-14T00:52:27.942Z,9.10
2023-05-14T00:54:01.018Z,9.10
2023-05-14T00:55:34.041Z,9.10
2023-05-14T00:57:08.150Z,9.10
2023-05-14T00:58:41.139Z,9.10
2023-05-14T01:00:15.038Z,9.00
2023-05-14T01:01:47.034Z,9.00
2023-05-14T01:03:21.482Z,9.10
2023-05-14T01:04:54.096Z,9.10
2023-05-14T01:06:34.591Z,9.10
2023-05-14T01:08:14.537Z,9.10
2023-05-14T01:09:54.638Z,9.10
2023-05-14T01:11:31.317Z,9.20
2023-05-14T01:13:13.785Z,9.20
2023-05-14T01:14:54.409Z,9.30
2023-05-14T01:16:29.351Z,9.40
2023-05-14T01:18:05.609Z,9.50
2023-05-14T01:19:42.122Z,9.60
2023-05-14T01:21:36.190Z,9.70
2023-05-14T01:23:09.111Z,9.70
2023-05-14T01:24:41.335Z,9.80
2023-05-14T01:26:14.260Z,9.90
2023-05-14T01:27:54.200Z,10.00
2023-05-14T01:29:29.612Z,10.10
2023-05-14T01:31:08.012Z,10.20
2023-05-14T01:32:40.678Z,10.30
2023-05-14T01:34:15.007Z,10.30
2023-05-14T01:35:48.251Z,10.30
2023-05-14T01:37:23.569Z,10.40
2023-05-14T01:38:56.542Z,10.40
2023-05-14T01:40:30.172Z,10.40
2023-05-14T01:42:04.590Z,10.40
2023-05-14T01:43:37.483Z,10.50
2023-05-14T01:45:11.578Z,10.50
2023-05-14T01:46:44.484Z,10.60
2023-05-14T01:48:17.727Z,10.60
2023-05-14T01:49:50.043Z,10.60
2023-05-14T01:51:22.965Z,10.60
2023-05-14T01:52:56.532Z,10.60
2023-05-14T01:54:29.701Z,10.60
2023-05-14T01:56:01.735Z,10.70
2023-05-14T01:57:34.797Z,10.60
2023-05-14T01:59:07.725Z,10.60
2023-05-14T02:00:40.626Z,10.60
2023-05-14T02:02:13.640Z,10.60
2023-05-14T02:03:45.692Z,10.70
2023-05-14T02:05:18.892Z,10.70
2023-05-14T02:06:51.202Z,10.70
2023-05-14T02:08:25.619Z,10.70
2023-05-14T02:09:58.730Z,10.70
2023-05-14T02:11:31.648Z,10.70
2023-05-14T02:13:04.620Z,10.70
2023-05-14T02:14:37.572Z,10.70
2023-05-14T02:16:10.887Z,10.70
2023-05-14T02:17:43.960Z,10.70
2023-05-14T02:19:15.981Z,10.70
2023-05-14T02:20:49.021Z,10.70
2023-05-14T02:22:21.941Z,10.70
2023-05-14T02:23:56.342Z,10.70
2023-05-14T02:25:29.220Z,10.70
2023-05-14T02:27:02.124Z,10.70
2023-05-14T02:28:35.071Z,10.70
2023-05-14T02:30:09.959Z,10.70
2023-05-14T02:31:43.454Z,10.70
2023-05-14T02:33:15.618Z,10.70
2023-05-14T02:34:48.658Z,10.70
2023-05-14T02:36:21.565Z,10.70
2023-05-14T02:37:54.758Z,10.60
2023-05-14T02:39:29.079Z,10.60
2023-05-14T02:41:02.007Z,10.60
2023-05-14T02:42:35.316Z,10.60
2023-05-14T02:44:08.063Z,10.50
2023-05-14T02:45:41.007Z,10.50
2023-05-14T02:47:14.005Z,10.50
2023-05-14T02:48:46.954Z,10.50
2023-05-14T02:50:18.871Z,10.50
2023-05-14T02:51:51.796Z,10.50
2023-05-14T02:53:23.760Z,10.50
2023-05-14T02:54:58.074Z,10.50
2023-05-14T02:56:31.038Z,10.50
2023-05-14T02:58:04.051Z,10.50
2023-05-14T02:59:37.005Z,10.60
2023-05-14T03:01:09.512Z,10.60
2023-05-14T03:02:43.643Z,10.60
2023-05-14T03:04:17.068Z,10.60
2023-05-14T03:05:49.193Z,10.60
2023-05-14T03:07:22.137Z,10.60
2023-05-14T03:08:55.258Z,10.60
2023-05-14T03:10:28.607Z,10.60
2023-05-14T03:12:01.374Z,10.60
2023-05-14T03:13:33.265Z,10.60
2023-05-14T03:15:06.836Z,10.60
2023-05-14T03:16:40.113Z,10.60
2023-05-14T03:18:12.853Z,10.60
2023-05-14T03:19:45.811Z,10.60
2023-05-14T03:21:18.820Z,10.60
2023-05-14T03:22:51.761Z,10.60
2023-05-14T03:24:23.693Z,10.60
2023-05-14T03:25:58.038Z,10.60
2023-05-14T03:27:30.942Z,10.70
2023-05-14T03:29:04.247Z,10.70
2023-05-14T03:30:37.146Z,10.60
2023-05-14T03:32:10.112Z,10.70
2023-05-14T03:33:43.108Z,10.60
2023-05-14T03:35:16.080Z,10.70
2023-05-14T03:36:49.129Z,10.70
2023-05-14T03:38:22.065Z,10.80
2023-05-14T03:39:55.010Z,10.80
2023-05-14T03:41:29.345Z,10.80
2023-05-14T03:43:02.287Z,10.70
2023-05-14T03:44:35.711Z,10.70
2023-05-14T03:46:08.580Z,10.80
2023-05-14T03:47:41.532Z,10.80
2023-05-14T03:49:14.561Z,10.80
2023-05-14T03:50:47.966Z,10.80
2023-05-14T03:52:20.950Z,10.80
2023-05-14T03:53:53.966Z,10.90
2023-05-14T03:55:26.877Z,10.90
2023-05-14T03:57:01.911Z,10.90
2023-05-14T03:58:34.952Z,10.90
2023-05-14T04:00:10.530Z,10.90
2023-05-14T04:01:43.425Z,10.90
2023-05-14T04:03:15.521Z,11.00
2023-05-14T04:04:48.661Z,11.00
2023-05-14T04:06:21.738Z,11.00
2023-05-14T04:07:54.728Z,11.10
2023-05-14T04:09:27.653Z,11.10
2023-05-14T04:11:00.664Z,11.10
2023-05-14T04:12:35.020Z,11.10
2023-05-14T04:14:08.037Z,11.20
2023-05-14T04:15:40.060Z,11.20
2023-05-14T04:17:12.999Z,11.30
2023-05-14T04:18:46.068Z,11.30
2023-05-14T04:20:19.094Z,11.30
2023-05-14T04:21:52.008Z,11.30
2023-05-14T04:23:24.921Z,11.40
2023-05-14T04:24:56.814Z,11.40
2023-05-14T04:26:29.725Z,11.50
2023-05-14T04:28:04.031Z,11.50
2023-05-14T04:29:37.013Z,11.50
2023-05-14T04:31:10.033Z,11.50
2023-05-14T04:32:43.057Z,11.60
2023-05-14T04:34:16.007Z,11.60
2023-05-14T04:35:47.923Z,11.60
2023-05-14T04:37:20.976Z,11.60
2023-05-14T04:38:53.909Z,11.70
2023-05-14T04:40:26.142Z,11.60
2023-05-14T04:41:59.277Z,11.60
2023-05-14T04:43:33.565Z,11.60
2023-05-14T04:45:07.436Z,11.70
2023-05-14T04:46:40.432Z,11.80
2023-05-14T04:48:13.318Z,11.70
2023-05-14T04:49:46.304Z,11.80
2023-05-14T04:51:19.394Z,11.70
2023-05-14T04:52:52.364Z,11.70
2023-05-14T04:54:25.396Z,11.70
2023-05-14T04:55:58.322Z,11.80
2023-05-14T04:57:30.378Z,11.80
2023-05-14T04:59:04.711Z,11.80
2023-05-14T05:00:36.986Z,11.90
2023-05-14T05:02:09.966Z,11.90
2023-05-14T05:03:42.950Z,11.90
2023-05-14T05:05:16.033Z,12.00
2023-05-14T05:06:48.953Z,12.10
2023-05-14T05:08:21.842Z,12.10
2023-05-14T05:09:54.834Z,12.10
2023-05-14T05:11:27.710Z,12.20
2023-05-14T05:13:01.158Z,12.20
2023-05-14T05:14:34.617Z,12.20
2023-05-14T05:16:07.958Z,12.20
2023-05-14T05:17:40.984Z,12.20
2023-05-14T05:19:14.015Z,12.20
2023-05-14T05:20:46.993Z,12.10
2023-05-14T05:22:20.549Z,12.00
2023-05-14T05:23:53.507Z,12.00
2023-05-14T05:25:26.472Z,11.90
2023-05-14T05:26:59.401Z,11.90
2023-05-14T05:28:32.277Z,11.80
2023-05-14T05:30:08.394Z,11.80
2023-05-14T05:31:41.445Z,11.80
2023-05-14T05:33:15.081Z,11.80
2023-05-14T05:34:48.046Z,11.80
2023-05-14T05:36:21.017Z,11.70
2023-05-14T05:37:53.955Z,11.70
2023-05-14T05:39:26.966Z,11.80
2023-05-14T05:40:59.927Z,11.80
2023-05-14T05:42:31.881Z,11.80
2023-05-14T05:44:05.747Z,11.80
2023-05-14T05:45:40.221Z,11.80
2023-05-14T05:47:13.568Z,11.90
2023-05-14T05:48:46.507Z,11.90
2023-05-14T05:50:20.053Z,12.00
2023-05-14T05:51:52.136Z,12.00
2023-05-14T05:53:25.257Z,12.00
2023-05-14T05:54:57.229Z,12.00
2023-05-14T05:56:30.134Z,12.10
2023-05-14T05:58:03.092Z,12.00
2023-05-14T05:59:36.187Z,12.10
2023-05-14T06:01:10.647Z,12.10
2023-05-14T06:02:44.113Z,12.20
2023-05-14T06:04:17.460Z,12.10
2023-05-14T06:05:50.710Z,12.20
2023-05-14T06:07:23.691Z,12.30
2023-05-14T06:08:56.696Z,12.30
2023-05-14T06:10:29.992Z,12.30
2023-05-14T06:12:03.067Z,12.30
2023-05-14T06:13:36.069Z,12.30
2023-05-14T06:15:09.936Z,12.40
2023-05-14T06:16:44.262Z,12.40
2023-05-14T06:18:17.402Z,12.50
2023-05-14T06:19:50.392Z,12.50
2023-05-14T06:21:22.427Z,12.60
2023-05-14T06:22:55.459Z,12.60
2023-05-14T06:24:28.341Z,12.60
2023-05-14T06:26:01.452Z,12.70
2023-05-14T06:27:34.429Z,12.80
2023-05-14T06:29:07.415Z,12.80
2023-05-14T06:30:40.492Z,12.90
2023-05-14T06:32:15.583Z,13.10
2023-05-14T06:33:48.688Z,13.20
2023-05-14T06:35:21.726Z,13.30
2023-05-14T06:36:54.603Z,13.40
2023-05-14T06:38:27.543Z,13.40
2023-05-14T06:40:00.503Z,13.50
2023-05-14T06:41:33.477Z,13.60
2023-05-14T06:43:06.642Z,13.70
2023-05-14T06:44:39.548Z,13.90
2023-05-14T06:46:12.418Z,14.00
2023-05-14T06:47:46.723Z,14.10
2023-05-14T06:49:20.051Z,14.30
2023-05-14T06:50:52.793Z,14.40
2023-05-14T06:52:24.889Z,14.40
2023-05-14T06:53:57.803Z,14.40
2023-05-14T06:55:29.971Z,14.50
2023-05-14T06:57:02.862Z,14.60
2023-05-14T06:58:35.846Z,14.60
2023-05-14T07:00:09.866Z,14.70
2023-05-14T07:01:42.907Z,14.80
2023-05-14T07:03:17.247Z,15.00
2023-05-14T07:04:50.236Z,14.90
2023-05-14T07:06:23.277Z,15.00
2023-05-14T07:07:56.234Z,15.10
2023-05-14T07:09:29.194Z,15.30
2023-05-14T07:11:02.165Z,15.50
2023-05-14T07:12:35.200Z,15.70
2023-05-14T07:14:08.104Z,15.80
2023-05-14T07:15:41.105Z,15.90
2023-05-14T07:17:14.101Z,16.00
2023-05-14T07:18:48.515Z,16.10
2023-05-14T07:20:23.806Z,16.20
2023-05-14T07:21:57.340Z,16.30
2023-05-14T07:23:30.152Z,16.30
2023-05-14T07:25:03.302Z,16.50
2023-05-14T07:26:36.320Z,16.60
2023-05-14T07:28:09.278Z,16.70
2023-05-14T07:29:42.192Z,16.80
2023-05-14T07:31:15.211Z,16.80
2023-05-14T07:32:48.245Z,17.00
2023-05-14T07:34:22.918Z,17.20
2023-05-14T07:35:55.969Z,17.20
2023-05-14T07:37:29.001Z,17.20
2023-05-14T07:39:02.092Z,17.30
2023-05-14T07:40:35.046Z,17.30
2023-05-14T07:42:08.138Z,17.30
2023-05-14T07:43:41.651Z,17.40
2023-05-14T07:45:14.563Z,17.60
2023-05-14T07:46:47.560Z,17.80
2023-05-14T07:48:19.584Z,17.90
2023-05-14T07:49:57.344Z,17.90
2023-05-14T07:51:30.594Z,18.10
2023-05-14T07:53:03.339Z,18.20
2023-05-14T07:54:36.251Z,18.30
2023-05-14T07:56:09.872Z,18.50
2023-05-14T07:57:42.820Z,18.50
2023-05-14T07:59:15.868Z,18.70
2023-05-14T08:00:48.829Z,18.60
2023-05-14T08:02:22.130Z,18.60
2023-05-14T08:03:55.410Z,18.60
2023-05-14T08:05:29.587Z,18.70
2023-05-14T08:07:02.467Z,18.80
2023-05-14T08:08:35.448Z,18.70
2023-05-14T08:10:09.602Z,18.70
2023-05-14T08:11:42.617Z,18.60
2023-05-14T08:13:15.582Z,18.60
2023-05-14T08:14:48.844Z,18.50
2023-05-14T08:16:21.686Z,18.40
2023-05-14T08:17:54.712Z,18.40
2023-05-14T08:19:27.876Z,18.40
2023-05-14T08:21:03.527Z,18.30
2023-05-14T08:22:36.782Z,18.30
2023-05-14T08:24:09.950Z,18.10
2023-05-14T08:25:42.859Z,18.00
2023-05-14T08:27:16.592Z,17.90
2023-05-14T08:28:49.526Z,17.80
2023-05-14T08:30:23.337Z,17.80
2023-05-14T08:31:56.507Z,17.80
2023-05-14T08:33:29.403Z,17.70
2023-05-14T08:35:02.363Z,17.70
2023-05-14T08:36:36.710Z,17.80
2023-05-14T08:38:09.748Z,17.90
2023-05-14T08:39:42.736Z,18.00
2023-05-14T08:41:16.914Z,18.00
2023-05-14T08:42:52.133Z,18.10
2023-05-14T08:44:33.952Z,18.10
2023-05-14T08:46:10.637Z,18.20
2023-05-14T08:47:45.906Z,18.30
2023-05-14T08:49:34.505Z,18.40
2023-05-14T08:51:08.757Z,18.60
2023-05-14T08:52:43.114Z,18.70
2023-05-14T08:54:17.799Z,18.70
2023-05-14T08:55:52.429Z,18.70
2023-05-14T08:57:27.063Z,18.80
2023-05-14T08:59:00.187Z,18.80
2023-05-14T09:00:33.182Z,18.60
2023-05-14T09:02:07.854Z,18.40
2023-05-14T09:03:41.691Z,18.30
2023-05-14T09:05:15.890Z,18.20
2023-05-14T09:06:53.436Z,18.10
2023-05-14T09:08:28.211Z,18.10
2023-05-14T09:10:02.179Z,18.00
2023-05-14T09:11:35.639Z,18.00
2023-05-14T09:13:10.091Z,17.90
2023-05-14T09:14:43.152Z,17.90
2023-05-14T09:16:17.969Z,17.70
2023-05-14T09:17:50.947Z,17.90
2023-05-14T09:19:24.404Z,18.10
2023-05-14T09:20:57.395Z,18.00
2023-05-14T09:22:32.853Z,18.10
2023-05-14T09:24:10.129Z,18.10
2023-05-14T09:25:43.948Z,17.90
2023-05-14T09:27:20.635Z,17.80
2023-05-14T09:28:56.425Z,17.80
2023-05-14T09:30:29.543Z,17.80
2023-05-14T09:32:04.952Z,17.80
2023-05-14T09:33:37.995Z,18.00
2023-05-14T09:35:12.811Z,18.20
2023-05-14T09:36:45.901Z,18.40
2023-05-14T09:38:18.864Z,18.70
2023-05-14T09:39:53.188Z,18.90
2023-05-14T09:41:26.280Z,19.10
2023-05-14T09:42:59.391Z,19.20
2023-05-14T09:44:32.525Z,19.30
2023-05-14T09:46:07.991Z,19.30
2023-05-14T09:47:41.243Z,19.50
2023-05-14T09:49:14.739Z,19.40
2023-05-14T09:50:48.107Z,19.30
2023-05-14T09:52:21.190Z,19.30
2023-05-14T09:53:56.198Z,19.60
2023-05-14T09:55:33.556Z,19.60
2023-05-14T09:57:06.978Z,19.50
2023-05-14T09:58:40.017Z,19.50
2023-05-14T10:00:14.242Z,19.60
2023-05-14T10:01:47.434Z,19.50
2023-05-14T10:03:21.228Z,19.80
2023-05-14T10:04:58.032Z,19.90
2023-05-14T10:06:36.869Z,19.90
2023-05-14T10:08:14.444Z,20.00
2023-05-14T10:09:50.344Z,19.80
2023-05-14T10:11:26.750Z,19.50
2023-05-14T10:13:04.381Z,19.30
2023-05-14T10:14:42.084Z,19.10
2023-05-14T10:16:20.642Z,19.10
2023-05-14T10:17:57.937Z,19.20
2023-05-14T10:19:35.570Z,19.20
2023-05-14T10:21:10.647Z,19.50
2023-05-14T10:22:43.638Z,19.60
2023-05-14T10:24:17.162Z,19.80
2023-05-14T10:25:53.288Z,19.80
2023-05-14T10:27:28.448Z,19.80
2023-05-14T10:29:01.495Z,19.90
2023-05-14T10:30:34.618Z,20.20
2023-05-14T10:32:08.281Z,20.30
2023-05-14T10:33:51.335Z,20.20
2023-05-14T10:35:27.213Z,19.80
2023-05-14T10:37:01.727Z,19.60
2023-05-14T10:38:35.871Z,19.50
2023-05-14T10:40:10.724Z,19.30
2023-05-14T10:41:44.004Z,19.00
2023-05-14T10:43:21.530Z,18.90
2023-05-14T10:44:58.202Z,18.70
2023-05-14T10:46:31.436Z,18.50
2023-05-14T10:48:04.371Z,18.40
2023-05-14T10:49:43.276Z,18.50
2023-05-14T10:51:20.902Z,18.70
2023-05-14T10:52:55.259Z,18.80
2023-05-14T10:54:29.393Z,19.00
2023-05-14T10:56:05.939Z,19.10
2023-05-14T10:57:41.082Z,19.00
2023-05-14T10:59:19.699Z,18.70
2023-05-14T11:00:56.775Z,18.80
2023-05-14T11:02:33.104Z,18.90
2023-05-14T11:04:06.580Z,19.00
2023-05-14T11:05:42.113Z,19.00
2023-05-14T11:07:14.228Z,18.90
2023-05-14T11:08:47.105Z,18.80
2023-05-14T11:10:21.987Z,18.70
2023-05-14T11:11:55.594Z,19.00
2023-05-14T11:13:29.035Z,19.40
2023-05-14T11:15:04.990Z,19.80
2023-05-14T11:16:38.123Z,19.80
2023-05-14T11:18:11.912Z,20.00
2023-05-14T11:19:44.787Z,20.00
2023-05-14T11:21:18.784Z,20.00
2023-05-14T11:22:52.508Z,19.90
2023-05-14T11:24:25.900Z,19.70
2023-05-14T11:25:59.039Z,19.70
2023-05-14T11:27:35.892Z,19.40
2023-05-14T11:29:08.945Z,19.30
2023-05-14T11:30:44.344Z,19.40
2023-05-14T11:32:18.339Z,19.40
2023-05-14T11:33:53.468Z,19.40
2023-05-14T11:35:27.176Z,19.50
2023-05-14T11:37:00.069Z,19.40
2023-05-14T11:38:33.112Z,19.40
2023-05-14T11:40:15.052Z,19.30
2023-05-14T11:41:48.053Z,19.10
2023-05-14T11:43:23.583Z,19.00
2023-05-14T11:44:56.689Z,18.60
2023-05-14T11:46:31.211Z,18.40
2023-05-14T11:48:12.489Z,18.30
2023-05-14T11:49:45.728Z,18.10
2023-05-14T11:51:18.657Z,18.10
2023-05-14T11:52:51.586Z,18.10
2023-05-14T11:54:27.381Z,18.00
2023-05-14T11:56:00.391Z,17.80
2023-05-14T11:57:33.322Z,17.70
2023-05-14T11:59:06.273Z,17.80
2023-05-14T12:00:40.781Z,17.80
2023-05-14T12:02:16.463Z,17.80
2023-05-14T12:03:48.752Z,18.00
2023-05-14T12:05:22.159Z,18.20
2023-05-14T12:06:55.393Z,18.40
2023-05-14T12:08:28.924Z,18.50
2023-05-14T12:10:03.417Z,18.70
2023-05-14T12:11:38.453Z,18.50
2023-05-14T12:13:11.484Z,18.50
2023-05-14T12:14:45.406Z,18.60
2023-05-14T12:16:18.402Z,18.80
2023-05-14T12:17:52.884Z,19.00
2023-05-14T12:19:26.038Z,19.00
2023-05-14T12:21:03.381Z,19.00
2023-05-14T12:22:37.156Z,19.10
2023-05-14T12:24:12.314Z,19.20
2023-05-14T12:25:51.890Z,19.10
2023-05-14T12:27:26.227Z,18.90
2023-05-14T12:29:01.767Z,18.80
2023-05-14T12:30:39.108Z,19.00
2023-05-14T12:32:12.096Z,19.20
2023-05-14T12:33:46.489Z,19.40
2023-05-14T12:35:19.709Z,19.70
2023-05-14T12:36:52.626Z,20.10
2023-05-14T12:38:25.763Z,20.20
2023-05-14T12:39:58.684Z,20.20
2023-05-14T12:41:31.959Z,20.00
2023-05-14T12:43:04.682Z,20.10
2023-05-14T12:44:37.674Z,19.90
2023-05-14T12:46:10.815Z,19.90
2023-05-14T12:47:43.699Z,19.70
2023-05-14T12:49:18.042Z,19.70
2023-05-14T12:50:51.198Z,19.80
2023-05-14T12:52:36.811Z,20.00
2023-05-14T12:54:12.062Z,20.10
2023-05-14T12:55:45.092Z,20.50
2023-05-14T12:57:19.680Z,20.80
2023-05-14T12:58:52.626Z,20.80
2023-05-14T13:00:25.797Z,20.80
2023-05-14T13:01:59.043Z,20.50
2023-05-14T13:03:32.332Z,20.40
2023-05-14T13:05:07.255Z,20.60
2023-05-14T13:06:40.448Z,20.70
2023-05-14T13:08:17.701Z,20.80
2023-05-14T13:09:50.668Z,20.70
2023-05-14T13:11:23.707Z,20.60
2023-05-14T13:12:59.852Z,20.70
2023-05-14T13:14:33.222Z,20.80
2023-05-14T13:16:06.939Z,21.00
2023-05-14T13:17:41.189Z,21.20
2023-05-14T13:19:14.389Z,21.00
2023-05-14T13:20:48.856Z,20.70
2023-05-14T13:22:21.813Z,20.50
2023-05-14T13:23:54.849Z,20.50
2023-05-14T13:25:28.573Z,20.50
2023-05-14T13:27:01.828Z,20.50
2023-05-14T13:28:34.625Z,20.50
2023-05-14T13:30:07.755Z,20.60
2023-05-14T13:31:40.792Z,20.90
2023-05-14T13:33:12.803Z,21.10
2023-05-14T13:34:45.971Z,21.30
2023-05-14T13:36:20.466Z,21.40
2023-05-14T13:37:52.561Z,21.40
2023-05-14T13:39:27.196Z,21.60
2023-05-14T13:41:02.607Z,21.90
2023-05-14T13:42:36.541Z,22.20
2023-05-14T13:44:09.503Z,21.90
2023-05-14T13:45:42.540Z,22.00
2023-05-14T13:47:18.203Z,21.70
2023-05-14T13:48:51.135Z,21.50
2023-05-14T13:50:24.246Z,21.00
2023-05-14T13:51:58.345Z,20.70
2023-05-14T13:53:31.323Z,20.50
2023-05-14T13:55:04.992Z,20.20
2023-05-14T13:56:38.015Z,19.90
2023-05-14T13:58:11.064Z,20.10
2023-05-14T13:59:44.235Z,20.00
2023-05-14T14:01:17.591Z,19.90
2023-05-14T14:02:50.694Z,20.00
2023-05-14T14:04:25.638Z,19.90
2023-05-14T14:05:58.663Z,19.80
2023-05-14T14:07:32.998Z,19.60
2023-05-14T14:09:06.045Z,19.50
2023-05-14T14:10:41.060Z,19.20
2023-05-14T14:12:14.021Z,19.30
2023-05-14T14:13:47.214Z,19.60
2023-05-14T14:15:20.151Z,19.60
2023-05-14T14:16:53.074Z,19.70
2023-05-14T14:18:26.085Z,19.70
2023-05-14T14:19:59.078Z,19.70
2023-05-14T14:21:32.691Z,19.80
2023-05-14T14:23:06.986Z,19.80
2023-05-14T14:24:39.954Z,19.70
2023-05-14T14:26:13.098Z,19.50
2023-05-14T14:27:46.526Z,19.50
2023-05-14T14:29:21.929Z,19.70
2023-05-14T14:30:55.039Z,19.80
2023-05-14T14:32:28.406Z,19.80
2023-05-14T14:34:01.357Z,19.90
2023-05-14T14:35:35.437Z,19.90
2023-05-14T14:37:08.417Z,19.90
2023-05-14T14:38:42.827Z,20.00
2023-05-14T14:40:16.179Z,20.10
2023-05-14T14:41:49.095Z,20.00
2023-05-14T14:43:22.093Z,20.10
2023-05-14T14:44:55.049Z,20.00
2023-05-14T14:46:28.663Z,20.10
2023-05-14T14:48:31.494Z,19.90
2023-05-14T14:50:04.853Z,19.70
2023-05-14T14:51:37.961Z,19.90
2023-05-14T14:53:11.170Z,19.70
2023-05-14T14:54:45.547Z,19.70
2023-05-14T14:56:18.620Z,19.80
2023-05-14T14:57:51.694Z,20.00
2023-05-14T14:59:24.707Z,20.20
2023-05-14T15:00:58.816Z,20.40
2023-05-14T15:02:31.977Z,20.60
2023-05-14T15:04:04.893Z,20.70
2023-05-14T15:05:37.901Z,20.80
2023-05-14T15:07:11.147Z,20.70
2023-05-14T15:08:44.062Z,20.80
2023-05-14T15:10:18.454Z,20.60
2023-05-14T15:11:51.450Z,20.30
2023-05-14T15:13:24.567Z,20.10
2023-05-14T15:14:57.723Z,19.90
2023-05-14T15:16:30.876Z,19.70
2023-05-14T15:18:04.333Z,19.50
2023-05-14T15:19:37.335Z,19.70
2023-05-14T15:21:10.383Z,19.70
2023-05-14T15:22:43.930Z,19.60
2023-05-14T15:24:16.901Z,19.50
2023-05-14T15:25:51.337Z,19.50
2023-05-14T15:27:24.224Z,19.60
2023-05-14T15:28:58.387Z,19.60
2023-05-14T15:30:33.915Z,19.70
2023-05-14T15:32:10.051Z,19.50
2023-05-14T15:33:43.590Z,19.60
2023-05-14T15:35:16.548Z,19.70
2023-05-14T15:36:52.641Z,19.70
2023-05-14T15:38:25.525Z,19.60
2023-05-14T15:39:58.542Z,19.50
2023-05-14T15:41:34.407Z,19.60
2023-05-14T15:43:07.360Z,19.70
2023-05-14T15:44:40.449Z,19.80
2023-05-14T15:46:15.174Z,19.70
2023-05-14T15:47:51.138Z,19.60
2023-05-14T15:49:24.384Z,19.60
2023-05-14T15:50:57.184Z,19.70
2023-05-14T15:52:30.384Z,19.70
2023-05-14T15:54:03.266Z,19.80
2023-05-14T15:55:36.413Z,19.80
2023-05-14T15:57:10.689Z,19.70
2023-05-14T15:58:43.488Z,19.70
2023-05-14T16:00:17.534Z,19.60
2023-05-14T16:01:51.619Z,19.70
2023-05-14T16:03:27.484Z,19.70
2023-05-14T16:05:00.872Z,19.70
2023-05-14T16:06:35.298Z,19.60
2023-05-14T16:08:08.505Z,19.70
2023-05-14T16:09:40.564Z,19.80
2023-05-14T16:11:13.556Z,19.90
2023-05-14T16:12:47.926Z,20.00
2023-05-14T16:14:21.179Z,20.10
2023-05-14T16:15:54.008Z,20.10
2023-05-14T16:17:27.740Z,20.10
2023-05-14T16:19:00.739Z,20.10
2023-05-14T16:20:33.874Z,20.00
2023-05-14T16:22:06.957Z,19.90
2023-05-14T16:23:42.754Z,20.10
2023-05-14T16:25:16.038Z,20.30
2023-05-14T16:26:49.045Z,20.70
2023-05-14T16:28:23.705Z,21.00
2023-05-14T16:29:56.995Z,21.20
2023-05-14T16:31:31.542Z,21.40
2023-05-14T16:33:04.752Z,21.40
2023-05-14T16:34:38.016Z,21.50
2023-05-14T16:36:09.839Z,21.70
2023-05-14T16:37:42.846Z,21.70
2023-05-14T16:39:16.612Z,21.70
2023-05-14T16:40:50.071Z,21.70
2023-05-14T16:42:23.104Z,21.60
2023-05-14T16:43:57.453Z,21.30
2023-05-14T16:45:32.595Z,21.00
2023-05-14T16:47:06.096Z,20.80
2023-05-14T16:48:39.152Z,20.70
2023-05-14T16:50:12.609Z,20.60
2023-05-14T16:51:45.578Z,20.50
2023-05-14T16:53:17.591Z,20.20
2023-05-14T16:54:50.991Z,20.20
2023-05-14T16:56:24.271Z,20.30
2023-05-14T16:57:57.222Z,20.40
2023-05-14T16:59:34.061Z,20.30
2023-05-14T17:01:09.335Z,20.40
2023-05-14T17:02:42.710Z,20.50
2023-05-14T17:04:16.001Z,20.50
2023-05-14T17:05:49.006Z,20.50
2023-05-14T17:07:24.642Z,20.30
2023-05-14T17:08:57.594Z,20.10
2023-05-14T17:10:33.144Z,20.00
2023-05-14T17:12:06.682Z,19.90
2023-05-14T17:13:39.851Z,19.70
2023-05-14T17:15:14.539Z,19.60
2023-05-14T17:16:47.475Z,19.50
2023-05-14T17:18:20.613Z,19.30
2023-05-14T17:19:53.432Z,19.20
2023-05-14T17:21:26.780Z,19.10
2023-05-14T17:22:59.766Z,18.90
2023-05-14T17:24:32.739Z,18.70
2023-05-14T17:26:05.756Z,18.50
2023-05-14T17:27:38.848Z,18.40
2023-05-14T17:29:10.658Z,18.30
2023-05-14T17:30:44.926Z,18.20
2023-05-14T17:32:18.054Z,18.00
2023-05-14T17:33:51.084Z,17.90
2023-05-14T17:35:24.260Z,17.90
2023-05-14T17:36:57.506Z,17.90
2023-05-14T17:38:30.571Z,17.80
2023-05-14T17:40:03.587Z,17.80
2023-05-14T17:41:36.513Z,17.80
2023-05-14T17:43:09.534Z,17.70
2023-05-14T17:44:42.475Z,17.80
2023-05-14T17:46:16.855Z,17.70
2023-05-14T17:47:51.365Z,17.70
2023-05-14T17:49:24.425Z,17.70
2023-05-14T17:50:57.331Z,17.70
2023-05-14T17:52:30.309Z,17.60
2023-05-14T17:54:03.468Z,17.50
2023-05-14T17:55:39.994Z,17.50
2023-05-14T17:57:12.979Z,17.40
2023-05-14T17:58:46.195Z,17.30
2023-05-14T18:00:18.185Z,17.20
2023-05-14T18:01:52.579Z,17.10
2023-05-14T18:03:25.545Z,17.10
2023-05-14T18:05:00.134Z,17.00
2023-05-14T18:06:33.157Z,17.00
2023-05-14T18:08:06.520Z,16.90
2023-05-14T18:09:39.604Z,16.80
2023-05-14T18:11:12.611Z,16.80
2023-05-14T18:12:45.478Z,16.80
2023-05-14T18:14:18.606Z,16.80
2023-05-14T18:15:54.130Z,16.80
2023-05-14T18:17:28.609Z,16.80
2023-05-14T18:19:01.583Z,16.90
2023-05-14T18:20:35.589Z,17.00
2023-05-14T18:22:08.747Z,17.00
2023-05-14T18:23:41.686Z,17.00
2023-05-14T18:25:14.744Z,17.00
2023-05-14T18:26:47.836Z,17.00
2023-05-14T18:28:21.442Z,17.00
2023-05-14T18:29:54.554Z,16.90
2023-05-14T18:31:28.486Z,16.90
2023-05-14T18:33:03.413Z,16.80
2023-05-14T18:34:36.506Z,16.70
2023-05-14T18:36:09.681Z,16.60
2023-05-14T18:37:42.597Z,16.60
2023-05-14T18:39:15.527Z,16.50
2023-05-14T18:40:49.373Z,16.50
2023-05-14T18:42:22.345Z,16.40
2023-05-14T18:43:55.420Z,16.40
2023-05-14T18:45:28.577Z,16.40
2023-05-14T18:47:00.585Z,16.30
2023-05-14T18:48:34.928Z,16.30
2023-05-14T18:50:09.091Z,16.30
2023-05-14T18:51:42.129Z,16.30
2023-05-14T18:53:15.073Z,16.20
2023-05-14T18:54:48.005Z,16.20
2023-05-14T18:56:21.503Z,16.10
2023-05-14T18:57:54.497Z,16.10
2023-05-14T18:59:27.424Z,16.00
2023-05-14T19:01:00.370Z,16.00
2023-05-14T19:02:33.391Z,16.00
2023-05-14T19:04:08.178Z,16.00
2023-05-14T19:05:41.180Z,15.90
2023-05-14T19:07:15.083Z,15.90
2023-05-14T19:08:48.024Z,15.80
2023-05-14T19:10:21.035Z,15.70
2023-05-14T19:11:53.972Z,15.70
2023-05-14T19:13:28.531Z,15.60
2023-05-14T19:15:01.864Z,15.50
2023-05-14T19:16:34.785Z,15.40
2023-05-14T19:18:07.814Z,15.30
2023-05-14T19:19:42.179Z,15.20
2023-05-14T19:21:15.924Z,15.10
2023-05-14T19:22:48.831Z,15.00
2023-05-14T19:24:21.716Z,14.90
2023-05-14T19:25:54.649Z,14.80
2023-05-14T19:27:27.755Z,14.70
2023-05-14T19:29:00.668Z,14.70
2023-05-14T19:30:33.608Z,14.60
2023-05-14T19:32:07.654Z,14.50
2023-05-14T19:33:40.752Z,14.50
2023-05-14T19:35:15.082Z,14.50
2023-05-14T19:36:48.045Z,14.40
2023-05-14T19:38:21.210Z,14.40
2023-05-14T19:39:54.180Z,14.40
2023-05-14T19:41:27.729Z,14.40
2023-05-14T19:43:00.708Z,14.40
2023-05-14T19:44:33.751Z,14.40
2023-05-14T19:46:06.778Z,14.30
2023-05-14T19:47:39.958Z,14.30
2023-05-14T19:49:13.048Z,14.30
2023-05-14T19:50:47.746Z,14.20
2023-05-14T19:52:20.848Z,14.20
2023-05-14T19:53:53.877Z,14.10
2023-05-14T19:55:27.048Z,14.00
2023-05-14T19:57:00.023Z,14.00
2023-05-14T19:58:33.035Z,13.90
2023-05-14T20:00:08.812Z,13.90
2023-05-14T20:01:41.917Z,13.80
2023-05-14T20:03:15.257Z,13.70
2023-05-14T20:04:48.099Z,13.70
2023-05-14T20:06:22.410Z,13.60
2023-05-14T20:07:55.702Z,13.50
2023-05-14T20:09:28.587Z,13.50
2023-05-14T20:11:01.548Z,13.50